createdAt,value
2023-03-17T00:02:06.201Z,29.7
2023-03-17T00:08:00.394Z,27.3
2023-03-17T00:13:36.673Z,26.1
2023-03-17T00:19:29.379Z,25
2023-03-17T00:25:22.347Z,24.3
2023-03-17T00:30:59.703Z,23.9
2023-03-17T00:36:20.505Z,23.4
2023-03-17T00:41:58.264Z,23.2
2023-03-17T00:47:50.978Z,26.4
2023-03-17T00:53:42.858Z,29.6
2023-03-17T00:59:20.696Z,27.6
2023-03-17T01:05:23.150Z,26.6
2023-03-17T01:10:59.572Z,24.9
2023-03-17T01:16:37.566Z,24.5
2023-03-17T01:22:30.170Z,23.8
2023-03-17T01:28:21.838Z,23.4
2023-03-17T01:33:59.605Z,23.1
2023-03-17T01:39:37.375Z,26.1
2023-03-17T01:45:14.828Z,29.1
2023-03-17T01:51:08.700Z,28.6
2023-03-17T01:57:01.050Z,26.8
2023-03-17T02:01:50.664Z,25.1
2023-03-17T02:07:57.093Z,24.6
2023-03-17T02:13:49.816Z,23.9
2023-03-17T02:19:41.929Z,23.6
2023-03-17T02:25:04.502Z,23.1
2023-03-17T02:30:41.619Z,25
2023-03-17T02:36:19.471Z,28.7
2023-03-17T02:41:57.637Z,30.1
2023-03-17T02:47:34.478Z,27
2023-03-17T02:53:10.143Z,25.4
2023-03-17T02:58:47.960Z,24.7
2023-03-17T03:04:41.468Z,23.9
2023-03-17T03:10:33.487Z,23.6
2023-03-17T03:16:27.658Z,23.1
2023-03-17T03:22:20.683Z,24.5
2023-03-17T03:28:11.614Z,28.4
2023-03-17T03:33:50.333Z,22
2023-03-17T03:39:42.726Z,26.9
2023-03-17T03:45:17.413Z,29.9
2023-03-17T03:50:55.192Z,27.9
2023-03-17T03:56:47.021Z,26.7
2023-03-17T04:02:25.997Z,24.8
2023-03-17T04:08:03.165Z,24.4
2023-03-17T04:13:55.267Z,23.6
2023-03-17T04:19:48.023Z,23.9
2023-03-17T04:25:41.031Z,28.6
2023-03-17T04:31:36.391Z,30.5
2023-03-17T04:37:14.540Z,27.1
2023-03-17T04:43:10.596Z,25.5
2023-03-17T04:48:48.325Z,24.6
2023-03-17T04:54:29.131Z,23.9
2023-03-17T05:00:36.199Z,23.4
2023-03-17T05:06:56.733Z,27
2023-03-17T05:12:35.320Z,29.8
2023-03-17T05:18:28.310Z,28.4
2023-03-17T05:24:20.733Z,26.7
2023-03-17T05:30:12.778Z,24.9
2023-03-17T05:36:07.341Z,24.4
2023-03-17T05:42:01.198Z,23.6
2023-03-17T05:47:54.188Z,23.4
2023-03-17T05:53:49.250Z,28.4
2023-03-17T05:59:26.224Z,30.3
2023-03-17T06:05:19.186Z,27.4
2023-03-17T06:11:11.257Z,26.3
2023-03-17T06:17:04.121Z,24.6
2023-03-17T06:23:06.105Z,23.9
2023-03-17T06:28:58.568Z,23.4
2023-03-17T06:35:05.187Z,26.2
2023-03-17T06:40:57.475Z,29.3
2023-03-17T06:46:53.228Z,23.7
2023-03-17T06:52:46.782Z,26.3
2023-03-17T06:58:56.795Z,29.8
2023-03-17T07:04:49.552Z,27.7
2023-03-17T07:10:41.989Z,26.5
2023-03-17T07:16:34.668Z,24.7
2023-03-17T07:22:28.110Z,24.1
2023-03-17T07:28:20.978Z,23.6
2023-03-17T07:33:42.731Z,25.4
2023-03-17T07:39:20.927Z,29.1
2023-03-17T07:45:13.387Z,30.3
2023-03-17T07:51:19.832Z,27.1
2023-03-17T07:57:16.142Z,25.3
2023-03-17T08:03:25.325Z,24.6
2023-03-17T08:09:17.375Z,23.8
2023-03-17T08:15:10.471Z,23.4
2023-03-17T08:21:05.103Z,27.9
2023-03-17T08:26:59.781Z,30.4
2023-03-17T08:32:55.722Z,27.4
2023-03-17T08:38:35.281Z,26.1
2023-03-17T08:44:27.866Z,24.4
2023-03-17T08:50:06.051Z,23.9
2023-03-17T08:55:43.749Z,23.4
2023-03-17T09:01:36.935Z,25.4
2023-03-17T09:07:51.362Z,29.3
2023-03-17T09:13:45.759Z,29
2023-03-17T09:19:35.052Z,26.2
2023-03-17T09:25:28.616Z,24.6
2023-03-17T09:31:23.009Z,24.1
2023-03-17T09:36:48.704Z,23.4
2023-03-17T09:42:42.755Z,23.3
2023-03-17T09:48:36.162Z,27.3
2023-03-17T09:54:30.076Z,30
2023-03-17T10:00:22.855Z,27.8
2023-03-17T10:06:16.314Z,26
2023-03-17T10:12:21.505Z,24.4
2023-03-17T10:18:15.820Z,24
2023-03-17T10:23:38.157Z,23.8
2023-03-17T10:29:33.905Z,27
2023-03-17T10:35:28.049Z,29.9
2023-03-17T10:41:31.186Z,28.1
2023-03-17T10:47:24.449Z,25.9
2023-03-17T10:53:17.927Z,24.3
2023-03-17T10:59:11.212Z,23.9
2023-03-17T11:05:04.678Z,23.8
2023-03-17T11:10:58.409Z,27.1
2023-03-17T11:16:50.718Z,30
2023-03-17T11:22:43.282Z,27.9
2023-03-17T11:28:06.075Z,26.6
2023-03-17T11:33:59.124Z,26.3
2023-03-17T11:39:51.897Z,25.9
2023-03-17T11:45:44.862Z,27.5
2023-03-17T11:51:38.029Z,30.3
2023-03-17T11:57:30.414Z,27.4
2023-03-17T12:03:23.273Z,25.8
2023-03-17T12:09:16.504Z,25.4
2023-03-17T12:15:09.009Z,28.7
2023-03-17T12:21:04.584Z,30
2023-03-17T12:26:57.477Z,26.6
2023-03-17T12:32:34.576Z,25.9
2023-03-17T12:38:31.899Z,25.3
2023-03-17T12:44:25.242Z,30.1
2023-03-17T12:50:19.473Z,27.7
2023-03-17T12:56:11.482Z,25.8
2023-03-17T13:02:04.978Z,25.4
2023-03-17T13:08:02.526Z,27.7
2023-03-17T13:13:55.889Z,30.9
2023-03-17T13:19:33.192Z,26.6
2023-03-17T13:25:28.576Z,25.6
2023-03-17T13:31:26.837Z,25.3
2023-03-17T13:37:20.216Z,28.9
2023-03-17T13:43:41.854Z,29.2
2023-03-17T13:49:37.372Z,26.8
2023-03-17T13:55:35.483Z,26.3
2023-03-17T14:01:29.631Z,25.8
2023-03-17T14:07:23.544Z,29.6
2023-03-17T14:13:16.494Z,28.4
2023-03-17T14:19:03.499Z,26.8
2023-03-17T14:25:00.920Z,26.4
2023-03-17T14:30:56.276Z,26.1
2023-03-17T14:36:34.309Z,28.3
2023-03-17T14:42:27.626Z,30.8
2023-03-17T14:48:20.515Z,27.4
2023-03-17T14:54:12.736Z,26.6
2023-03-17T15:00:07.095Z,26.3
2023-03-17T15:06:01.561Z,26
2023-03-17T15:11:56.523Z,29.1
2023-03-17T15:17:50.213Z,29.6
2023-03-17T15:23:43.451Z,27.1
2023-03-17T15:29:36.375Z,26.5
2023-03-17T15:35:37.497Z,26.2
2023-03-17T15:41:36.933Z,25.8
2023-03-17T15:47:29.380Z,25.5
2023-03-17T15:53:22.937Z,25.1
2023-03-17T15:59:18.263Z,24.8
2023-03-17T16:05:09.977Z,24.4
2023-03-17T16:11:03.495Z,32.9
2023-03-17T16:17:11.767Z,37.2
2023-03-17T16:23:04.417Z,41.2
2023-03-17T16:29:08.810Z,42.4
2023-03-17T16:34:45.567Z,42.7
2023-03-17T16:40:37.954Z,42.7
2023-03-17T16:46:42.928Z,42.6
2023-03-17T16:52:35.329Z,39.5
2023-03-17T16:58:13.888Z,39.2
2023-03-17T17:03:36.998Z,40.6
2023-03-17T17:09:13.629Z,42.1
2023-03-17T17:14:50.286Z,42.1
2023-03-17T17:20:27.277Z,38.6
2023-03-17T17:26:06.130Z,40.1
2023-03-17T17:31:28.719Z,38.6
2023-03-17T17:37:21.878Z,42.2
2023-03-17T17:43:15.483Z,42.1
2023-03-17T17:48:55.029Z,42.1
2023-03-17T17:54:48.351Z,42
2023-03-17T18:00:24.963Z,42
2023-03-17T18:05:46.681Z,41.1
2023-03-17T18:11:25.128Z,40.9
2023-03-17T18:17:01.625Z,41.2
2023-03-17T18:22:53.567Z,41.3
2023-03-17T18:28:47.150Z,42.1
2023-03-17T18:34:25.619Z,42.2
2023-03-17T18:40:15.333Z,39.8
2023-03-17T18:45:54.417Z,42.1
2023-03-17T18:51:16.481Z,41.7
2023-03-17T18:57:08.682Z,40.2
2023-03-17T19:03:03.171Z,38.6
2023-03-17T19:08:25.877Z,39.8
2023-03-17T19:14:17.822Z,37.8
2023-03-17T19:20:10.379Z,37.4
2023-03-17T19:25:46.732Z,37.6
2023-03-17T19:31:24.699Z,37.3
2023-03-17T19:37:20.035Z,37.1
2023-03-17T19:42:41.137Z,36.8
2023-03-17T19:48:13.630Z,36.4
2023-03-17T19:53:36.557Z,36.6
2023-03-17T19:59:13.200Z,39.3
2023-03-17T20:05:06.508Z,41.1
2023-03-17T20:10:59.640Z,42.9
2023-03-17T20:16:21.816Z,42.9
2023-03-17T20:21:45.759Z,42.6
2023-03-17T20:27:08.469Z,42.6
2023-03-17T20:32:45.774Z,39.1
2023-03-17T20:38:41.294Z,37.9
2023-03-17T20:44:33.663Z,37.3
2023-03-17T20:50:26.552Z,36.9
2023-03-17T20:56:21.941Z,36.6
2023-03-17T21:02:15.314Z,35.7
2023-03-17T21:08:08.046Z,34.6
2023-03-17T21:14:01.423Z,33.5
2023-03-17T21:19:42.325Z,32.3
2023-03-17T21:25:20.211Z,31.4
2023-03-17T21:30:41.550Z,30.8
2023-03-17T21:36:35.000Z,30.3
2023-03-17T21:42:30.346Z,29.9
2023-03-17T21:48:23.352Z,29.5
2023-03-17T21:54:16.917Z,28
2023-03-17T21:59:54.662Z,26.9
2023-03-17T22:05:24.845Z,26.4
2023-03-17T22:11:18.312Z,25.8
2023-03-17T22:16:25.601Z,25.5
2023-03-17T22:22:05.954Z,25.2
2023-03-17T22:27:59.812Z,24.9
2023-03-17T22:33:53.140Z,24.6
2023-03-17T22:39:47.553Z,24.3
2023-03-17T22:45:28.500Z,24.2
2023-03-17T22:51:05.928Z,23.9
2023-03-17T22:56:42.540Z,23.9
2023-03-17T23:02:35.781Z,23.6
2023-03-17T23:08:22.805Z,23.5
2023-03-17T23:14:15.207Z,23.4
2023-03-17T23:20:09.406Z,23.3
2023-03-17T23:26:01.382Z,23.1
2023-03-17T23:31:55.037Z,25.9
2023-03-17T23:37:33.443Z,29.8
2023-03-17T23:43:11.020Z,27.3
2023-03-17T23:49:04.295Z,26.2
2023-03-17T23:54:26.766Z,25.4
